createdAt,value
2023-04-19T00:01:09.977Z,12.10
2023-04-19T00:03:39.586Z,8.30
2023-04-19T00:06:10.252Z,10.55
2023-04-19T00:08:42.222Z,9.58
2023-04-19T00:11:11.945Z,8.23
2023-04-19T00:13:41.399Z,8.50
2023-04-19T00:16:11.016Z,7.50
2023-04-19T00:18:40.645Z,14.07
2023-04-19T00:21:10.336Z,9.38
2023-04-19T00:23:39.853Z,6.50
2023-04-19T00:26:11.100Z,5.87
2023-04-19T00:28:41.135Z,5.20
2023-04-19T00:31:11.355Z,5.97
2023-04-19T00:33:42.468Z,5.03
2023-04-19T00:36:12.927Z,3.25
2023-04-19T00:38:42.374Z,4.90
2023-04-19T00:41:13.730Z,3.27
2023-04-19T00:43:44.427Z,5.95
2023-04-19T00:46:16.396Z,8.30
2023-04-19T00:48:47.476Z,10.18
2023-04-19T00:51:17.566Z,10.93
2023-04-19T00:53:47.154Z,8.68
2023-04-19T00:56:18.527Z,9.58
2023-04-19T00:58:50.632Z,8.20
2023-04-19T01:01:20.246Z,4.67
2023-04-19T01:03:52.468Z,4.67
2023-04-19T01:06:23.829Z,3.27
2023-04-19T01:08:53.265Z,4.62
2023-04-19T01:11:28.801Z,4.90
2023-04-19T01:13:58.486Z,4.00
2023-04-19T01:16:28.698Z,3.22
2023-04-19T01:18:58.038Z,3.27
2023-04-19T01:21:29.745Z,3.90
2023-04-19T01:23:59.321Z,3.70
2023-04-19T01:26:28.884Z,4.00
2023-04-19T01:28:58.473Z,3.87
2023-04-19T01:31:27.927Z,3.33
2023-04-19T01:33:57.432Z,3.50
2023-04-19T01:36:27.733Z,2.97
2023-04-19T01:41:27.060Z,4.67
2023-04-19T01:43:56.602Z,4.60
2023-04-19T01:46:26.075Z,5.27
2023-04-19T01:48:55.444Z,3.27
2023-04-19T01:51:24.792Z,3.33
2023-04-19T01:53:54.602Z,3.30
2023-04-19T01:56:24.994Z,3.17
2023-04-19T01:58:54.398Z,3.83
2023-04-19T02:01:24.024Z,3.30
2023-04-19T02:03:53.771Z,4.12
2023-04-19T02:06:23.438Z,3.55
2023-04-19T02:08:52.940Z,3.23
2023-04-19T02:11:22.381Z,2.80
2023-04-19T02:13:51.760Z,2.93
2023-04-19T02:16:21.247Z,2.70
2023-04-19T02:18:52.176Z,2.60
2023-04-19T02:21:21.690Z,2.80
2023-04-19T02:23:51.353Z,3.40
2023-04-19T02:26:21.661Z,2.85
2023-04-19T02:28:53.070Z,3.50
2023-04-19T02:31:22.613Z,3.42
2023-04-19T02:33:52.122Z,2.70
2023-04-19T02:36:21.511Z,3.33
2023-04-19T02:38:50.985Z,2.53
2023-04-19T02:41:22.137Z,2.65
2023-04-19T02:43:51.687Z,3.30
2023-04-19T02:46:21.141Z,2.52
2023-04-19T02:48:50.651Z,2.27
2023-04-19T02:51:20.255Z,2.93
2023-04-19T02:53:49.679Z,3.30
2023-04-19T02:56:19.168Z,2.77
2023-04-19T02:58:49.031Z,2.95
2023-04-19T03:01:18.573Z,2.33
2023-04-19T03:03:48.112Z,2.63
2023-04-19T03:06:17.772Z,2.95
2023-04-19T03:08:47.306Z,3.50
2023-04-19T03:11:18.826Z,2.60
2023-04-19T03:13:48.634Z,2.75
2023-04-19T03:16:18.293Z,2.75
2023-04-19T03:18:49.601Z,2.80
2023-04-19T03:21:20.608Z,2.70
2023-04-19T03:23:51.679Z,2.33
2023-04-19T03:26:21.215Z,2.10
2023-04-19T03:28:52.280Z,2.37
2023-04-19T03:31:23.579Z,2.47
2023-04-19T03:33:53.456Z,1.90
2023-04-19T03:36:25.011Z,2.62
2023-04-19T03:38:54.499Z,2.10
2023-04-19T03:41:26.195Z,2.27
2023-04-19T03:44:13.788Z,2.00
2023-04-19T03:46:46.705Z,1.87
2023-04-19T03:49:18.163Z,2.02
2023-04-19T03:51:49.503Z,1.67
2023-04-19T03:54:18.920Z,2.15
2023-04-19T03:56:49.273Z,1.00
2023-04-19T03:59:18.880Z,1.22
2023-04-19T04:01:48.752Z,1.12
2023-04-19T04:04:18.622Z,3.22
2023-04-19T04:06:48.428Z,14.07
2023-04-19T04:09:18.546Z,4.05
2023-04-19T04:11:48.064Z,1.53
2023-04-19T04:14:17.605Z,1.37
2023-04-19T04:16:48.271Z,1.12
2023-04-19T04:19:18.793Z,1.37
2023-04-19T04:21:49.215Z,1.50
2023-04-19T04:24:20.169Z,1.30
2023-04-19T04:26:54.433Z,1.82
2023-04-19T04:29:29.029Z,1.00
2023-04-19T04:32:01.093Z,1.35
2023-04-19T04:34:33.001Z,1.72
2023-04-19T04:37:08.407Z,1.72
2023-04-19T04:39:39.760Z,1.37
2023-04-19T04:42:10.811Z,1.57
2023-04-19T04:44:42.170Z,2.23
2023-04-19T04:47:14.432Z,1.30
2023-04-19T04:49:45.680Z,1.62
2023-04-19T04:52:15.240Z,1.67
2023-04-19T04:54:46.406Z,1.02
2023-04-19T04:57:17.603Z,1.37
2023-04-19T04:59:48.924Z,1.40
2023-04-19T05:02:19.102Z,1.55
2023-04-19T05:04:48.677Z,1.70
2023-04-19T05:07:18.233Z,0.90
2023-04-19T05:09:47.854Z,1.20
2023-04-19T05:12:18.935Z,0.80
2023-04-19T05:14:48.460Z,0.93
2023-04-19T05:17:18.056Z,0.98
2023-04-19T05:19:47.991Z,1.12
2023-04-19T05:22:17.677Z,1.02
2023-04-19T05:24:47.349Z,1.37
2023-04-19T05:27:18.069Z,1.07
2023-04-19T05:29:47.549Z,1.40
2023-04-19T05:32:17.581Z,1.47
2023-04-19T05:34:48.648Z,1.47
2023-04-19T05:37:18.267Z,1.00
2023-04-19T05:39:48.138Z,1.30
2023-04-19T05:42:17.617Z,1.22
2023-04-19T05:44:47.245Z,2.33
2023-04-19T05:47:17.771Z,1.45
2023-04-19T05:50:04.951Z,1.85
2023-04-19T05:52:36.126Z,1.10
2023-04-19T05:57:36.329Z,0.95
2023-04-19T06:00:08.185Z,1.57
2023-04-19T06:02:45.524Z,1.17
2023-04-19T06:05:15.798Z,0.88
2023-04-19T06:07:54.547Z,1.30
2023-04-19T06:10:16.764Z,3.22
2023-04-19T06:12:46.295Z,1.22
2023-04-19T06:15:15.859Z,1.40
2023-04-19T06:17:47.015Z,1.57
2023-04-19T06:20:16.520Z,2.10
2023-04-19T06:22:46.809Z,4.03
2023-04-19T06:25:16.306Z,2.15
2023-04-19T06:27:45.789Z,2.27
2023-04-19T06:30:15.370Z,2.33
2023-04-19T06:32:44.827Z,4.12
2023-04-19T06:35:14.627Z,2.40
2023-04-19T06:37:44.107Z,3.72
2023-04-19T06:40:13.569Z,3.58
2023-04-19T06:42:42.991Z,2.33
2023-04-19T06:45:15.165Z,4.47
2023-04-19T06:47:44.749Z,4.45
2023-04-19T06:50:14.219Z,4.45
2023-04-19T06:52:43.704Z,3.58
2023-04-19T06:55:13.195Z,4.95
2023-04-19T06:57:43.354Z,5.50
2023-04-19T07:00:13.993Z,2.33
2023-04-19T07:02:43.518Z,1.65
2023-04-19T07:05:13.465Z,3.97
2023-04-19T07:07:42.955Z,1.82
2023-04-19T07:10:12.917Z,3.13
2023-04-19T07:12:42.260Z,4.22
2023-04-19T07:15:12.339Z,5.28
2023-04-19T07:17:41.787Z,3.52
2023-04-19T07:20:11.910Z,4.22
2023-04-19T07:22:41.483Z,1.50
2023-04-19T07:25:11.670Z,1.85
2023-04-19T07:27:41.400Z,1.95
2023-04-19T07:30:12.557Z,2.42
2023-04-19T07:32:42.159Z,2.25
2023-04-19T07:35:11.684Z,2.10
2023-04-19T07:37:41.110Z,2.47
2023-04-19T07:40:11.234Z,1.72
2023-04-19T07:42:40.708Z,2.33
2023-04-19T07:45:10.831Z,3.52
2023-04-19T07:47:40.296Z,3.20
2023-04-19T07:50:10.550Z,1.93
2023-04-19T07:52:39.956Z,2.00
2023-04-19T07:55:09.752Z,3.10
2023-04-19T07:57:39.208Z,1.95
2023-04-19T08:00:10.377Z,2.30
2023-04-19T08:02:47.037Z,2.80
2023-04-19T08:05:17.918Z,2.22
2023-04-19T08:07:47.737Z,2.90
2023-04-19T08:10:17.165Z,1.67
2023-04-19T08:13:03.607Z,2.15
2023-04-19T08:15:50.927Z,2.47
2023-04-19T08:17:48.679Z,2.98
2023-04-19T08:20:18.152Z,6.30
2023-04-19T08:22:47.584Z,1.67
2023-04-19T08:25:17.324Z,1.93
2023-04-19T08:27:46.707Z,2.45
2023-04-19T08:30:16.395Z,2.22
2023-04-19T08:32:45.958Z,1.82
2023-04-19T08:35:15.580Z,1.23
2023-04-19T08:37:44.941Z,1.80
2023-04-19T08:40:14.600Z,1.98
2023-04-19T08:42:44.588Z,1.72
2023-04-19T08:47:58.657Z,2.17
2023-04-19T08:50:32.203Z,1.95
2023-04-19T08:52:57.358Z,1.80
2023-04-19T08:55:24.559Z,1.60
2023-04-19T08:57:54.031Z,1.82
2023-04-19T09:00:23.748Z,1.97
2023-04-19T09:02:55.806Z,1.95
2023-04-19T09:05:25.788Z,1.72
2023-04-19T09:07:55.512Z,1.90
2023-04-19T09:10:26.309Z,1.87
2023-04-19T09:13:04.350Z,2.08
2023-04-19T09:15:38.879Z,1.90
2023-04-19T09:18:10.406Z,1.80
2023-04-19T09:20:41.828Z,1.70
2023-04-19T09:23:13.903Z,1.65
2023-04-19T09:26:19.112Z,2.30
2023-04-19T09:28:32.557Z,2.20
2023-04-19T09:31:20.402Z,1.45
2023-04-19T09:33:40.109Z,1.98
2023-04-19T09:36:10.069Z,1.82
2023-04-19T09:38:52.685Z,2.20
2023-04-19T09:41:22.233Z,2.20
2023-04-19T09:44:07.782Z,2.07
2023-04-19T09:46:36.263Z,2.02
2023-04-19T09:49:33.791Z,2.08
2023-04-19T09:51:58.780Z,1.75
2023-04-19T09:54:29.811Z,2.15
2023-04-19T09:57:01.354Z,1.95
2023-04-19T09:59:30.441Z,4.75
2023-04-19T10:02:01.666Z,2.20
2023-04-19T10:04:44.092Z,2.22
2023-04-19T10:09:42.772Z,2.60
2023-04-19T10:12:21.218Z,2.65
2023-04-19T10:14:41.269Z,1.77
2023-04-19T10:17:11.218Z,1.55
2023-04-19T10:19:42.496Z,2.08
2023-04-19T10:22:13.163Z,2.30
2023-04-19T10:24:47.273Z,2.37
2023-04-19T10:27:16.785Z,2.08
2023-04-19T10:30:07.384Z,2.20
2023-04-19T10:32:41.988Z,2.65
2023-04-19T10:35:23.126Z,3.00
2023-04-19T10:38:13.397Z,1.98
2023-04-19T10:41:04.089Z,1.95
2023-04-19T10:43:35.259Z,1.98
2023-04-19T10:46:16.857Z,2.10
2023-04-19T10:49:03.217Z,2.27
2023-04-19T10:51:42.663Z,2.00
2023-04-19T10:54:33.325Z,2.05
2023-04-19T10:57:05.684Z,2.10
2023-04-19T10:59:40.616Z,1.92
2023-04-19T11:02:32.588Z,2.10
2023-04-19T11:05:04.333Z,2.15
2023-04-19T11:07:38.972Z,2.00
2023-04-19T11:10:09.317Z,2.00
2023-04-19T11:15:09.831Z,3.52
2023-04-19T11:17:39.605Z,2.22
2023-04-19T11:20:13.901Z,2.35
2023-04-19T11:22:45.874Z,2.35
2023-04-19T11:25:22.844Z,2.30
2023-04-19T11:27:55.699Z,3.02
2023-04-19T11:30:30.336Z,2.02
2023-04-19T11:32:59.877Z,2.45
2023-04-19T11:35:33.238Z,2.17
2023-04-19T11:38:02.679Z,2.55
2023-04-19T11:40:32.583Z,2.37
2023-04-19T11:43:04.987Z,2.02
2023-04-19T11:45:39.460Z,3.30
2023-04-19T11:48:09.294Z,2.30
2023-04-19T11:50:40.463Z,2.35
2023-04-19T11:53:17.210Z,2.67
2023-04-19T11:55:51.940Z,2.72
2023-04-19T11:58:33.608Z,2.15
2023-04-19T12:01:08.367Z,1.90
2023-04-19T12:03:43.925Z,3.98
2023-04-19T12:06:16.589Z,1.62
2023-04-19T12:08:48.948Z,2.40
2023-04-19T12:11:21.585Z,1.42
2023-04-19T12:14:10.618Z,1.87
2023-04-19T12:16:40.194Z,2.52
2023-04-19T12:19:18.367Z,2.02
2023-04-19T12:21:48.901Z,2.55
2023-04-19T12:26:58.047Z,2.75
2023-04-19T12:29:29.278Z,2.15
2023-04-19T12:31:58.751Z,2.55
2023-04-19T12:34:28.335Z,4.05
2023-04-19T12:36:58.288Z,2.63
2023-04-19T12:39:28.673Z,3.02
2023-04-19T12:44:27.048Z,2.47
2023-04-19T12:46:57.719Z,2.27
2023-04-19T12:49:27.360Z,2.33
2023-04-19T12:51:57.603Z,2.10
2023-04-19T12:54:27.137Z,3.05
2023-04-19T12:56:57.556Z,2.30
2023-04-19T12:59:26.951Z,2.27
2023-04-19T13:01:56.473Z,2.05
2023-04-19T13:04:26.127Z,2.20
2023-04-19T13:06:55.742Z,2.23
2023-04-19T13:09:25.161Z,2.43
2023-04-19T13:11:56.431Z,2.80
2023-04-19T13:14:28.189Z,2.40
2023-04-19T13:16:57.744Z,2.12
2023-04-19T13:19:27.850Z,2.23
2023-04-19T13:21:57.445Z,3.50
2023-04-19T13:24:26.880Z,2.53
2023-04-19T13:26:56.657Z,3.20
2023-04-19T13:29:26.129Z,2.77
2023-04-19T13:31:55.674Z,2.23
2023-04-19T13:34:25.213Z,3.13
2023-04-19T13:36:54.639Z,2.97
2023-04-19T13:39:24.076Z,3.47
2023-04-19T13:41:53.523Z,1.80
2023-04-19T13:44:22.996Z,1.65
2023-04-19T13:46:52.694Z,2.73
2023-04-19T13:49:22.165Z,2.92
2023-04-19T13:51:51.688Z,2.40
2023-04-19T13:54:21.470Z,2.53
2023-04-19T13:56:52.319Z,2.30
2023-04-19T13:59:22.692Z,2.17
2023-04-19T14:01:53.979Z,2.45
2023-04-19T14:04:24.125Z,2.45
2023-04-19T14:06:54.116Z,3.27
2023-04-19T14:09:23.590Z,1.80
2023-04-19T14:11:53.082Z,2.08
2023-04-19T14:14:22.538Z,2.67
2023-04-19T14:16:51.937Z,2.55
2023-04-19T14:19:21.379Z,1.87
2023-04-19T14:21:50.805Z,4.43
2023-04-19T14:24:20.239Z,2.90
2023-04-19T14:26:57.026Z,2.75
2023-04-19T14:29:20.593Z,1.92
2023-04-19T14:31:50.038Z,3.05
2023-04-19T14:34:19.591Z,3.13
2023-04-19T14:36:51.003Z,2.10
2023-04-19T14:39:20.345Z,2.33
2023-04-19T14:41:49.744Z,2.60
2023-04-19T14:44:19.164Z,2.10
2023-04-19T14:46:48.820Z,2.08
2023-04-19T14:49:18.370Z,1.77
2023-04-19T14:51:47.976Z,3.40
2023-04-19T14:54:17.471Z,2.37
2023-04-19T14:56:46.968Z,2.73
2023-04-19T14:59:16.904Z,1.70
2023-04-19T15:01:46.668Z,2.45
2023-04-19T15:04:16.487Z,2.83
2023-04-19T15:06:46.062Z,2.05
2023-04-19T15:09:16.315Z,2.35
2023-04-19T15:11:46.223Z,3.15
2023-04-19T15:14:15.699Z,3.02
2023-04-19T15:16:45.142Z,3.03
2023-04-19T15:19:15.028Z,2.62
2023-04-19T15:21:44.599Z,2.30
2023-04-19T15:24:14.056Z,2.72
2023-04-19T15:26:44.580Z,3.80
2023-04-19T15:29:14.673Z,2.30
2023-04-19T15:31:44.399Z,2.95
2023-04-19T15:34:13.788Z,2.60
2023-04-19T15:36:43.214Z,2.12
2023-04-19T15:39:12.573Z,2.67
2023-04-19T15:41:42.083Z,1.87
2023-04-19T15:44:11.523Z,2.40
2023-04-19T15:46:41.333Z,1.85
2023-04-19T15:49:10.829Z,2.52
2023-04-19T15:51:40.560Z,3.30
2023-04-19T15:54:12.044Z,2.90
2023-04-19T15:56:41.557Z,2.58
2023-04-19T15:59:10.979Z,3.30
2023-04-19T16:01:40.558Z,2.40
2023-04-19T16:04:10.101Z,2.80
2023-04-19T16:06:39.688Z,3.83
2023-04-19T16:09:09.224Z,2.92
2023-04-19T16:11:39.281Z,2.83
2023-04-19T16:14:08.758Z,2.35
2023-04-19T16:16:38.207Z,4.23
2023-04-19T16:19:07.696Z,3.83
2023-04-19T16:21:37.188Z,3.62
2023-04-19T16:24:06.963Z,4.00
2023-04-19T16:26:36.443Z,3.55
2023-04-19T16:29:05.892Z,2.60
2023-04-19T16:31:37.591Z,2.75
2023-04-19T16:34:07.109Z,3.22
2023-04-19T16:36:36.624Z,3.87
2023-04-19T16:39:05.971Z,4.77
2023-04-19T16:41:35.455Z,3.87
2023-04-19T16:44:05.062Z,2.93
2023-04-19T16:46:34.551Z,4.47
2023-04-19T16:49:04.160Z,3.07
2023-04-19T16:51:33.596Z,4.67
2023-04-19T16:54:03.030Z,3.72
2023-04-19T16:56:32.624Z,6.15
2023-04-19T16:59:02.063Z,3.43
2023-04-19T17:01:31.543Z,3.75
2023-04-19T17:04:01.376Z,3.40
2023-04-19T17:06:32.062Z,4.17
2023-04-19T17:09:04.658Z,3.90
2023-04-19T17:11:34.437Z,3.42
2023-04-19T17:14:03.962Z,3.42
2023-04-19T17:16:33.434Z,3.43
2023-04-19T17:19:02.821Z,3.20
2023-04-19T17:21:32.368Z,2.30
2023-04-19T17:24:01.826Z,2.93
2023-04-19T17:26:31.390Z,2.30
2023-04-19T17:29:02.059Z,2.57
2023-04-19T17:31:31.796Z,1.98
2023-04-19T17:34:01.140Z,2.10
2023-04-19T17:36:31.571Z,2.50
2023-04-19T17:41:29.672Z,3.40
2023-04-19T17:43:59.013Z,2.77
2023-04-19T17:46:28.559Z,2.98
2023-04-19T17:48:57.994Z,2.57
2023-04-19T17:51:27.479Z,2.00
2023-04-19T17:54:00.856Z,1.73
2023-04-19T17:56:31.175Z,3.05
2023-04-19T18:01:32.064Z,2.02
2023-04-19T18:04:01.823Z,2.33
2023-04-19T18:06:31.708Z,2.98
2023-04-19T18:09:01.301Z,3.08
2023-04-19T18:11:30.659Z,2.57
2023-04-19T18:14:00.530Z,3.33
2023-04-19T18:16:29.974Z,3.30
2023-04-19T18:18:59.471Z,3.65
2023-04-19T18:21:28.981Z,5.05
2023-04-19T18:23:58.404Z,4.37
2023-04-19T18:26:39.444Z,4.12
2023-04-19T18:29:09.571Z,2.83
2023-04-19T18:31:39.097Z,3.62
2023-04-19T18:34:09.953Z,4.00
2023-04-19T18:36:39.621Z,4.30
2023-04-19T18:39:09.166Z,3.70
2023-04-19T18:41:38.538Z,3.43
2023-04-19T18:44:34.730Z,3.67
2023-04-19T18:46:38.982Z,4.97
2023-04-19T18:49:08.537Z,3.95
2023-04-19T18:51:38.028Z,5.93
2023-04-19T18:54:07.626Z,4.33
2023-04-19T18:59:08.008Z,4.20
2023-04-19T19:01:37.558Z,4.23
2023-04-19T19:04:28.272Z,4.62
2023-04-19T19:06:38.789Z,4.50
2023-04-19T19:09:08.325Z,3.40
2023-04-19T19:11:55.428Z,4.75
2023-04-19T19:14:09.329Z,3.83
2023-04-19T19:16:50.789Z,4.90
2023-04-19T19:19:10.349Z,4.55
2023-04-19T19:21:39.775Z,3.50
2023-04-19T19:24:09.254Z,3.55
2023-04-19T19:26:38.683Z,3.60
2023-04-19T19:29:09.465Z,5.83
2023-04-19T19:31:39.014Z,4.72
2023-04-19T19:34:19.983Z,3.45
2023-04-19T19:36:40.278Z,3.72
2023-04-19T19:39:10.952Z,4.17
2023-04-19T19:44:35.201Z,3.77
2023-04-19T19:47:09.906Z,4.33
2023-04-19T19:49:51.573Z,3.75
2023-04-19T19:52:07.005Z,4.17
2023-04-19T19:54:36.504Z,4.47
2023-04-19T19:59:37.385Z,4.20
2023-04-19T20:02:07.580Z,4.33
2023-04-19T20:04:38.776Z,3.98
2023-04-19T20:07:29.402Z,3.85
2023-04-19T20:09:39.821Z,2.83
2023-04-19T20:12:10.673Z,4.27
2023-04-19T20:14:40.471Z,4.35
2023-04-19T20:17:10.090Z,3.40
2023-04-19T20:19:40.056Z,3.20
2023-04-19T20:22:09.615Z,3.67
2023-04-19T20:24:40.392Z,3.70
2023-04-19T20:27:09.857Z,3.80
2023-04-19T20:29:39.355Z,3.93
2023-04-19T20:32:08.808Z,3.37
2023-04-19T20:34:39.573Z,3.50
2023-04-19T20:37:09.693Z,4.03
2023-04-19T20:39:39.185Z,3.42
2023-04-19T20:42:08.670Z,3.00
2023-04-19T20:44:38.028Z,3.37
2023-04-19T20:47:08.901Z,3.30
2023-04-19T20:49:38.302Z,3.05
2023-04-19T20:52:08.019Z,3.23
2023-04-19T20:54:38.744Z,3.15
2023-04-19T20:57:08.631Z,3.15
2023-04-19T20:59:39.164Z,3.30
2023-04-19T21:02:09.494Z,2.85
2023-04-19T21:07:07.686Z,4.30
2023-04-19T21:09:37.195Z,4.07
2023-04-19T21:12:06.664Z,3.53
2023-04-19T21:14:36.154Z,3.60
2023-04-19T21:17:05.864Z,3.17
2023-04-19T21:19:35.693Z,3.02
2023-04-19T21:22:05.290Z,3.85
2023-04-19T21:24:34.750Z,3.90
2023-04-19T21:27:04.088Z,3.00
2023-04-19T21:29:33.694Z,3.80
2023-04-19T21:32:03.764Z,3.60
2023-04-19T21:34:33.147Z,3.43
2023-04-19T21:37:02.600Z,4.03
2023-04-19T21:39:31.999Z,3.43
2023-04-19T21:42:01.492Z,3.52
2023-04-19T21:44:30.958Z,3.70
2023-04-19T21:47:00.359Z,3.87
2023-04-19T21:49:29.914Z,3.77
2023-04-19T21:51:59.315Z,3.37
2023-04-19T21:54:34.078Z,4.12
2023-04-19T21:57:00.482Z,3.62
2023-04-19T21:59:34.143Z,4.05
2023-04-19T22:02:04.332Z,3.50
2023-04-19T22:04:33.893Z,4.33
2023-04-19T22:07:03.352Z,4.65
2023-04-19T22:09:32.698Z,4.23
2023-04-19T22:12:02.382Z,3.92
2023-04-19T22:14:31.885Z,4.47
2023-04-19T22:17:02.543Z,4.73
2023-04-19T22:19:32.421Z,4.15
2023-04-19T22:22:02.092Z,4.33
2023-04-19T22:24:31.600Z,4.55
2023-04-19T22:27:01.821Z,4.37
2023-04-19T22:29:32.178Z,3.92
2023-04-19T22:34:30.341Z,3.65
2023-04-19T22:36:59.693Z,4.20
2023-04-19T22:39:29.149Z,4.35
2023-04-19T22:41:58.500Z,4.78
2023-04-19T22:44:27.974Z,4.70
2023-04-19T22:46:58.287Z,4.43
2023-04-19T22:49:29.690Z,4.30
2023-04-19T22:51:59.673Z,5.05
2023-04-19T22:54:29.280Z,3.37
2023-04-19T22:56:58.642Z,5.27
2023-04-19T22:59:28.231Z,4.97
2023-04-19T23:01:57.693Z,4.08
2023-04-19T23:04:27.179Z,5.10
2023-04-19T23:06:56.600Z,5.50
2023-04-19T23:09:26.087Z,6.13
2023-04-19T23:11:55.507Z,4.72
2023-04-19T23:14:25.192Z,5.23
2023-04-19T23:16:54.706Z,4.42
2023-04-19T23:19:25.271Z,4.90
2023-04-19T23:21:54.640Z,5.22
2023-04-19T23:24:24.134Z,5.17
2023-04-19T23:26:53.619Z,4.97
2023-04-19T23:29:23.051Z,5.47
2023-04-19T23:31:52.633Z,4.85
2023-04-19T23:34:22.352Z,4.97
2023-04-19T23:36:51.776Z,4.83
2023-04-19T23:39:21.505Z,5.17
2023-04-19T23:41:50.945Z,4.60
2023-04-19T23:44:20.432Z,5.47
2023-04-19T23:46:49.882Z,4.97
2023-04-19T23:49:19.684Z,5.10
2023-04-19T23:51:51.784Z,5.08
2023-04-19T23:54:22.512Z,5.72
2023-04-19T23:56:52.520Z,4.75
2023-04-19T23:59:23.583Z,5.60
